sensor_id;sensor_type;location;lat;lon;timestamp;temperature;humidity
1956;DHT22;978;48.314;11.562;2023-11-21T00:01:47;22.00;73.60
1956;DHT22;978;48.314;11.562;2023-11-21T00:04:15;22.00;73.70
1956;DHT22;978;48.314;11.562;2023-11-21T00:06:43;22.00;73.60
1956;DHT22;978;48.314;11.562;2023-11-21T00:09:13;22.00;73.70
1956;DHT22;978;48.314;11.562;2023-11-21T00:11:42;22.00;73.60
1956;DHT22;978;48.314;11.562;2023-11-21T00:14:16;22.60;74.00
1956;DHT22;978;48.314;11.562;2023-11-21T00:16:44;22.00;73.70
1956;DHT22;978;48.314;11.562;2023-11-21T00:19:11;22.00;73.60
1956;DHT22;978;48.314;11.562;2023-11-21T00:21:40;22.00;73.70
1956;DHT22;978;48.314;11.562;2023-11-21T00:24:11;22.00;73.70
1956;DHT22;978;48.314;11.562;2023-11-21T00:26:39;22.00;73.60
1956;DHT22;978;48.314;11.562;2023-11-21T00:29:05;22.40;73.90
1956;DHT22;978;48.314;11.562;2023-11-21T00:31:37;22.30;73.80
1956;DHT22;978;48.314;11.562;2023-11-21T00:34:04;22.00;73.70
1956;DHT22;978;48.314;11.562;2023-11-21T00:36:32;22.20;73.80
1956;DHT22;978;48.314;11.562;2023-11-21T00:38:59;22.00;73.60
1956;DHT22;978;48.314;11.562;2023-11-21T00:41:27;22.00;73.70
1956;DHT22;978;48.314;11.562;2023-11-21T00:43:55;22.00;73.70
1956;DHT22;978;48.314;11.562;2023-11-21T00:46:22;22.00;73.70
1956;DHT22;978;48.314;11.562;2023-11-21T00:48:51;22.00;73.60
1956;DHT22;978;48.314;11.562;2023-11-21T00:51:19;22.00;73.70
1956;DHT22;978;48.314;11.562;2023-11-21T00:53:46;22.00;73.60
1956;DHT22;978;48.314;11.562;2023-11-21T00:56:14;22.70;74.10
1956;DHT22;978;48.314;11.562;2023-11-21T00:58:42;22.10;73.70
1956;DHT22;978;48.314;11.562;2023-11-21T01:01:13;22.00;73.70
1956;DHT22;978;48.314;11.562;2023-11-21T01:03:42;22.00;73.20
1956;DHT22;978;48.314;11.562;2023-11-21T01:06:11;22.00;73.70
1956;DHT22;978;48.314;11.562;2023-11-21T01:08:39;22.00;73.60
1956;DHT22;978;48.314;11.562;2023-11-21T01:11:06;22.00;73.70
1956;DHT22;978;48.314;11.562;2023-11-21T01:13:34;22.00;73.70
1956;DHT22;978;48.314;11.562;2023-11-21T01:16:01;22.30;73.80
1956;DHT22;978;48.314;11.562;2023-11-21T01:18:30;22.00;73.70
1956;DHT22;978;48.314;11.562;2023-11-21T01:20:57;22.00;73.60
1956;DHT22;978;48.314;11.562;2023-11-21T01:23:27;22.00;73.70
1956;DHT22;978;48.314;11.562;2023-11-21T01:25:56;22.00;73.60
1956;DHT22;978;48.314;11.562;2023-11-21T01:28:23;22.00;73.70
1956;DHT22;978;48.314;11.562;2023-11-21T01:30:50;22.00;73.60
1956;DHT22;978;48.314;11.562;2023-11-21T01:33:18;22.00;73.70
1956;DHT22;978;48.314;11.562;2023-11-21T01:35:45;22.00;73.60
1956;DHT22;978;48.314;11.562;2023-11-21T01:38:12;22.00;73.60
1956;DHT22;978;48.314;11.562;2023-11-21T01:40:41;22.00;73.60
1956;DHT22;978;48.314;11.562;2023-11-21T01:43:09;22.00;73.60
1956;DHT22;978;48.314;11.562;2023-11-21T01:45:37;22.10;73.70
1956;DHT22;978;48.314;11.562;2023-11-21T01:48:05;22.00;73.60
1956;DHT22;978;48.314;11.562;2023-11-21T01:50:35;22.00;73.70
1956;DHT22;978;48.314;11.562;2023-11-21T01:53:02;22.00;73.60
1956;DHT22;978;48.314;11.562;2023-11-21T01:55:31;22.00;73.60
1956;DHT22;978;48.314;11.562;2023-11-21T01:58:00;22.00;73.70
1956;DHT22;978;48.314;11.562;2023-11-21T02:00:28;22.20;73.80
1956;DHT22;978;48.314;11.562;2023-11-21T02:02:56;22.00;73.60
1956;DHT22;978;48.314;11.562;2023-11-21T02:05:24;22.00;73.60
1956;DHT22;978;48.314;11.562;2023-11-21T02:07:52;23.20;74.40
1956;DHT22;978;48.314;11.562;2023-11-21T02:10:20;22.00;73.60
1956;DHT22;978;48.314;11.562;2023-11-21T02:12:48;22.00;73.60
1956;DHT22;978;48.314;11.562;2023-11-21T02:15:18;22.00;73.60
1956;DHT22;978;48.314;11.562;2023-11-21T02:17:48;22.40;73.90
1956;DHT22;978;48.314;11.562;2023-11-21T02:20:18;22.00;73.70
1956;DHT22;978;48.314;11.562;2023-11-21T02:22:49;22.00;73.70
1956;DHT22;978;48.314;11.562;2023-11-21T02:25:19;22.00;73.60
1956;DHT22;978;48.314;11.562;2023-11-21T02:27:47;22.00;73.60
1956;DHT22;978;48.314;11.562;2023-11-21T02:30:15;22.00;73.70
1956;DHT22;978;48.314;11.562;2023-11-21T02:32:42;22.00;73.60
1956;DHT22;978;48.314;11.562;2023-11-21T02:35:10;22.00;73.70
1956;DHT22;978;48.314;11.562;2023-11-21T02:37:39;22.20;73.80
1956;DHT22;978;48.314;11.562;2023-11-21T02:40:09;22.00;73.70
1956;DHT22;978;48.314;11.562;2023-11-21T02:42:39;22.00;73.60
1956;DHT22;978;48.314;11.562;2023-11-21T02:45:07;22.00;73.70
1956;DHT22;978;48.314;11.562;2023-11-21T02:47:35;22.00;73.60
1956;DHT22;978;48.314;11.562;2023-11-21T02:50:02;22.00;73.60
1956;DHT22;978;48.314;11.562;2023-11-21T02:52:33;22.00;73.60
1956;DHT22;978;48.314;11.562;2023-11-21T02:54:59;22.00;73.60
1956;DHT22;978;48.314;11.562;2023-11-21T02:57:27;22.00;73.90
1956;DHT22;978;48.314;11.562;2023-11-21T02:59:54;22.00;73.60
1956;DHT22;978;48.314;11.562;2023-11-21T03:02:21;22.00;73.60
1956;DHT22;978;48.314;11.562;2023-11-21T03:04:48;22.00;73.60
1956;DHT22;978;48.314;11.562;2023-11-21T03:07:17;22.00;73.60
1956;DHT22;978;48.314;11.562;2023-11-21T03:09:47;22.10;73.70
1956;DHT22;978;48.314;11.562;2023-11-21T03:12:15;22.00;73.60
1956;DHT22;978;48.314;11.562;2023-11-21T03:14:43;22.00;73.60
1956;DHT22;978;48.314;11.562;2023-11-21T03:17:11;22.00;73.60
1956;DHT22;978;48.314;11.562;2023-11-21T03:19:38;22.00;73.60
1956;DHT22;978;48.314;11.562;2023-11-21T03:22:05;22.00;73.60
1956;DHT22;978;48.314;11.562;2023-11-21T03:24:32;22.00;73.60
1956;DHT22;978;48.314;11.562;2023-11-21T03:26:59;22.00;73.60
1956;DHT22;978;48.314;11.562;2023-11-21T03:29:27;22.00;73.60
1956;DHT22;978;48.314;11.562;2023-11-21T03:31:57;22.00;73.60
1956;DHT22;978;48.314;11.562;2023-11-21T03:34:26;22.00;73.60
1956;DHT22;978;48.314;11.562;2023-11-21T03:36:54;22.00;73.60
1956;DHT22;978;48.314;11.562;2023-11-21T03:39:23;22.50;73.90
1956;DHT22;978;48.314;11.562;2023-11-21T03:41:52;22.00;73.60
1956;DHT22;978;48.314;11.562;2023-11-21T03:44:20;22.00;73.60
1956;DHT22;978;48.314;11.562;2023-11-21T03:46:47;22.00;73.60
1956;DHT22;978;48.314;11.562;2023-11-21T03:49:16;22.00;73.60
1956;DHT22;978;48.314;11.562;2023-11-21T03:51:45;22.00;73.60
1956;DHT22;978;48.314;11.562;2023-11-21T03:54:11;22.00;73.60
1956;DHT22;978;48.314;11.562;2023-11-21T03:56:39;22.00;73.10
1956;DHT22;978;48.314;11.562;2023-11-21T03:59:07;22.00;73.60
1956;DHT22;978;48.314;11.562;2023-11-21T04:01:35;22.00;73.60
1956;DHT22;978;48.314;11.562;2023-11-21T04:04:02;22.10;73.60
1956;DHT22;978;48.314;11.562;2023-11-21T04:06:32;22.00;73.60
1956;DHT22;978;48.314;11.562;2023-11-21T04:08:59;22.00;73.60
1956;DHT22;978;48.314;11.562;2023-11-21T04:11:27;22.00;73.60
1956;DHT22;978;48.314;11.562;2023-11-21T04:13:56;22.00;73.60
1956;DHT22;978;48.314;11.562;2023-11-21T04:16:24;22.00;73.60
1956;DHT22;978;48.314;11.562;2023-11-21T04:18:51;22.00;73.60
1956;DHT22;978;48.314;11.562;2023-11-21T04:21:19;22.00;73.60
1956;DHT22;978;48.314;11.562;2023-11-21T04:23:47;22.00;73.60
1956;DHT22;978;48.314;11.562;2023-11-21T04:26:15;22.00;73.60
1956;DHT22;978;48.314;11.562;2023-11-21T04:28:42;22.00;73.60
1956;DHT22;978;48.314;11.562;2023-11-21T04:31:10;22.00;73.60
1956;DHT22;978;48.314;11.562;2023-11-21T04:33:38;22.00;74.10
1956;DHT22;978;48.314;11.562;2023-11-21T04:36:06;22.00;73.60
1956;DHT22;978;48.314;11.562;2023-11-21T04:38:34;22.00;73.60
1956;DHT22;978;48.314;11.562;2023-11-21T04:41:02;22.00;73.50
1956;DHT22;978;48.314;11.562;2023-11-21T04:43:30;22.40;73.80
1956;DHT22;978;48.314;11.562;2023-11-21T04:45:58;22.00;73.60
1956;DHT22;978;48.314;11.562;2023-11-21T04:48:26;22.00;73.50
1956;DHT22;978;48.314;11.562;2023-11-21T04:50:54;22.00;73.60
1956;DHT22;978;48.314;11.562;2023-11-21T04:53:22;22.40;73.80
1956;DHT22;978;48.314;11.562;2023-11-21T04:55:49;22.00;73.50
1956;DHT22;978;48.314;11.562;2023-11-21T04:58:18;22.30;73.70
1956;DHT22;978;48.314;11.562;2023-11-21T05:00:47;22.00;73.00
1956;DHT22;978;48.314;11.562;2023-11-21T05:03:16;22.30;73.70
1956;DHT22;978;48.314;11.562;2023-11-21T05:05:44;22.00;73.50
1956;DHT22;978;48.314;11.562;2023-11-21T05:08:11;22.00;73.00
1956;DHT22;978;48.314;11.562;2023-11-21T05:10:38;22.00;73.50
1956;DHT22;978;48.314;11.562;2023-11-21T05:13:05;22.00;73.50
1956;DHT22;978;48.314;11.562;2023-11-21T05:15:38;22.00;73.50
1956;DHT22;978;48.314;11.562;2023-11-21T05:18:05;24.00;74.60
1956;DHT22;978;48.314;11.562;2023-11-21T05:20:36;22.00;73.50
1956;DHT22;978;48.314;11.562;2023-11-21T05:23:05;22.00;73.50
1956;DHT22;978;48.314;11.562;2023-11-21T05:25:32;22.00;73.50
1956;DHT22;978;48.314;11.562;2023-11-21T05:28:02;22.00;73.50
1956;DHT22;978;48.314;11.562;2023-11-21T05:30:33;22.00;73.50
1956;DHT22;978;48.314;11.562;2023-11-21T05:33:03;23.30;74.60
1956;DHT22;978;48.314;11.562;2023-11-21T05:35:31;22.00;73.60
1956;DHT22;978;48.314;11.562;2023-11-21T05:37:58;22.00;74.40
1956;DHT22;978;48.314;11.562;2023-11-21T05:40:26;22.60;74.00
1956;DHT22;978;48.314;11.562;2023-11-21T05:42:56;22.00;73.60
1956;DHT22;978;48.314;11.562;2023-11-21T05:45:24;22.00;73.60
1956;DHT22;978;48.314;11.562;2023-11-21T05:47:51;22.00;73.90
1956;DHT22;978;48.314;11.562;2023-11-21T05:50:23;22.20;73.70
1956;DHT22;978;48.314;11.562;2023-11-21T05:52:51;22.00;73.50
1956;DHT22;978;48.314;11.562;2023-11-21T05:55:22;22.00;73.60
1956;DHT22;978;48.314;11.562;2023-11-21T05:57:52;22.00;73.60
1956;DHT22;978;48.314;11.562;2023-11-21T06:00:20;22.00;73.50
1956;DHT22;978;48.314;11.562;2023-11-21T06:02:48;22.00;73.40
1956;DHT22;978;48.314;11.562;2023-11-21T06:05:19;22.00;72.90
1956;DHT22;978;48.314;11.562;2023-11-21T06:07:51;22.00;72.90
1956;DHT22;978;48.314;11.562;2023-11-21T06:10:20;22.00;73.50
1956;DHT22;978;48.314;11.562;2023-11-21T06:12:47;22.00;73.50
1956;DHT22;978;48.314;11.562;2023-11-21T06:15:14;22.20;73.40
1956;DHT22;978;48.314;11.562;2023-11-21T06:20:16;22.00;72.50
1956;DHT22;978;48.314;11.562;2023-11-21T06:22:46;22.00;72.80
1956;DHT22;978;48.314;11.562;2023-11-21T06:25:16;22.00;72.20
1956;DHT22;978;48.314;11.562;2023-11-21T06:27:46;22.60;73.00
1956;DHT22;978;48.314;11.562;2023-11-21T06:30:14;22.00;72.50
1956;DHT22;978;48.314;11.562;2023-11-21T06:32:43;22.00;72.30
1956;DHT22;978;48.314;11.562;2023-11-21T06:35:11;22.60;72.40
1956;DHT22;978;48.314;11.562;2023-11-21T06:37:39;22.00;71.90
1956;DHT22;978;48.314;11.562;2023-11-21T06:40:08;22.00;71.80
1956;DHT22;978;48.314;11.562;2023-11-21T06:42:37;22.00;71.80
1956;DHT22;978;48.314;11.562;2023-11-21T06:45:05;22.10;71.70
1956;DHT22;978;48.314;11.562;2023-11-21T06:47:38;22.00;71.50
1956;DHT22;978;48.314;11.562;2023-11-21T06:50:05;22.00;71.40
1956;DHT22;978;48.314;11.562;2023-11-21T06:52:36;22.00;71.30
1956;DHT22;978;48.314;11.562;2023-11-21T06:55:03;22.00;71.20
1956;DHT22;978;48.314;11.562;2023-11-21T06:57:31;22.00;71.00
1956;DHT22;978;48.314;11.562;2023-11-21T06:59:59;22.00;70.90
1956;DHT22;978;48.314;11.562;2023-11-21T07:02:27;22.00;70.80
1956;DHT22;978;48.314;11.562;2023-11-21T07:04:56;22.10;70.80
1956;DHT22;978;48.314;11.562;2023-11-21T07:07:23;22.90;71.10
1956;DHT22;978;48.314;11.562;2023-11-21T07:09:52;22.00;70.50
1956;DHT22;978;48.314;11.562;2023-11-21T07:12:20;22.00;70.40
1956;DHT22;978;48.314;11.562;2023-11-21T07:14:50;22.00;70.30
1956;DHT22;978;48.314;11.562;2023-11-21T07:17:18;22.00;70.30
1956;DHT22;978;48.314;11.562;2023-11-21T07:19:46;22.00;69.60
1956;DHT22;978;48.314;11.562;2023-11-21T07:22:14;22.00;70.10
1956;DHT22;978;48.314;11.562;2023-11-21T07:24:48;23.30;70.70
1956;DHT22;978;48.314;11.562;2023-11-21T07:27:16;22.00;69.90
1956;DHT22;978;48.314;11.562;2023-11-21T07:29:44;22.30;70.00
1956;DHT22;978;48.314;11.562;2023-11-21T07:32:12;22.00;69.70
1956;DHT22;978;48.314;11.562;2023-11-21T07:34:44;22.00;69.70
1956;DHT22;978;48.314;11.562;2023-11-21T07:37:10;22.00;69.50
1956;DHT22;978;48.314;11.562;2023-11-21T07:39:41;22.00;69.50
1956;DHT22;978;48.314;11.562;2023-11-21T07:42:09;22.00;69.50
1956;DHT22;978;48.314;11.562;2023-11-21T07:44:38;22.00;69.40
1956;DHT22;978;48.314;11.562;2023-11-21T07:47:05;22.00;69.20
1956;DHT22;978;48.314;11.562;2023-11-21T07:49:35;25.10;70.90
1956;DHT22;978;48.314;11.562;2023-11-21T07:52:10;22.00;69.10
1956;DHT22;978;48.314;11.562;2023-11-21T07:54:38;22.00;69.10
1956;DHT22;978;48.314;11.562;2023-11-21T07:57:05;22.00;69.00
1956;DHT22;978;48.314;11.562;2023-11-21T07:59:33;22.00;69.00
1956;DHT22;978;48.314;11.562;2023-11-21T08:02:00;22.00;69.00
1956;DHT22;978;48.314;11.562;2023-11-21T08:04:27;22.00;69.50
1956;DHT22;978;48.314;11.562;2023-11-21T08:06:54;22.00;69.30
1956;DHT22;978;48.314;11.562;2023-11-21T08:09:22;22.00;69.10
1956;DHT22;978;48.314;11.562;2023-11-21T08:11:51;22.00;69.10
1956;DHT22;978;48.314;11.562;2023-11-21T08:14:19;22.30;69.30
1956;DHT22;978;48.314;11.562;2023-11-21T08:16:48;22.00;68.90
1956;DHT22;978;48.314;11.562;2023-11-21T08:19:15;22.00;69.20
1956;DHT22;978;48.314;11.562;2023-11-21T08:21:45;22.00;69.20
1956;DHT22;978;48.314;11.562;2023-11-21T08:24:13;22.00;69.30
1956;DHT22;978;48.314;11.562;2023-11-21T08:26:41;22.00;69.20
1956;DHT22;978;48.314;11.562;2023-11-21T08:29:09;22.00;69.20
1956;DHT22;978;48.314;11.562;2023-11-21T08:31:38;22.00;69.30
1956;DHT22;978;48.314;11.562;2023-11-21T08:34:07;22.00;69.20
1956;DHT22;978;48.314;11.562;2023-11-21T08:36:35;22.00;69.30
1956;DHT22;978;48.314;11.562;2023-11-21T08:39:02;22.00;69.20
1956;DHT22;978;48.314;11.562;2023-11-21T08:41:32;22.00;69.20
1956;DHT22;978;48.314;11.562;2023-11-21T08:44:00;22.00;69.20
1956;DHT22;978;48.314;11.562;2023-11-21T08:46:28;22.00;69.20
1956;DHT22;978;48.314;11.562;2023-11-21T08:48:55;22.10;69.30
1956;DHT22;978;48.314;11.562;2023-11-21T08:51:23;22.00;69.20
1956;DHT22;978;48.314;11.562;2023-11-21T08:53:51;22.00;69.20
1956;DHT22;978;48.314;11.562;2023-11-21T08:56:21;23.90;70.30
1956;DHT22;978;48.314;11.562;2023-11-21T08:58:49;22.00;69.20
1956;DHT22;978;48.314;11.562;2023-11-21T09:01:19;22.00;69.20
1956;DHT22;978;48.314;11.562;2023-11-21T09:03:46;22.00;69.30
1956;DHT22;978;48.314;11.562;2023-11-21T09:06:14;22.00;69.20
1956;DHT22;978;48.314;11.562;2023-11-21T09:08:42;22.00;69.20
1956;DHT22;978;48.314;11.562;2023-11-21T09:11:10;22.00;69.30
1956;DHT22;978;48.314;11.562;2023-11-21T09:13:37;22.00;69.40
1956;DHT22;978;48.314;11.562;2023-11-21T09:16:04;22.00;69.40
1956;DHT22;978;48.314;11.562;2023-11-21T09:18:33;22.00;69.50
1956;DHT22;978;48.314;11.562;2023-11-21T09:21:00;22.00;69.60
1956;DHT22;978;48.314;11.562;2023-11-21T09:23:28;22.00;69.60
1956;DHT22;978;48.314;11.562;2023-11-21T09:25:55;22.00;69.70
1956;DHT22;978;48.314;11.562;2023-11-21T09:28:23;22.00;69.70
1956;DHT22;978;48.314;11.562;2023-11-21T09:30:51;22.00;69.80
1956;DHT22;978;48.314;11.562;2023-11-21T09:33:19;22.90;70.30
1956;DHT22;978;48.314;11.562;2023-11-21T09:35:50;22.00;69.90
1956;DHT22;978;48.314;11.562;2023-11-21T09:38:17;22.30;70.10
1956;DHT22;978;48.314;11.562;2023-11-21T09:40:44;22.50;70.30
1956;DHT22;978;48.314;11.562;2023-11-21T09:43:16;22.00;70.00
1956;DHT22;978;48.314;11.562;2023-11-21T09:45:46;21.90;70.00
1956;DHT22;978;48.314;11.562;2023-11-21T09:48:14;22.00;70.10
1956;DHT22;978;48.314;11.562;2023-11-21T09:50:43;23.00;70.70
1956;DHT22;978;48.314;11.562;2023-11-21T09:53:16;22.20;70.20
1956;DHT22;978;48.314;11.562;2023-11-21T09:55:46;22.00;70.20
1956;DHT22;978;48.314;11.562;2023-11-21T09:58:14;22.00;70.20
1956;DHT22;978;48.314;11.562;2023-11-21T10:00:43;22.00;70.20
1956;DHT22;978;48.314;11.562;2023-11-21T10:03:11;22.20;70.40
1956;DHT22;978;48.314;11.562;2023-11-21T10:05:43;24.20;71.60
1956;DHT22;978;48.314;11.562;2023-11-21T10:08:13;22.00;70.30
1956;DHT22;978;48.314;11.562;2023-11-21T10:10:44;22.00;70.40
1956;DHT22;978;48.314;11.562;2023-11-21T10:13:13;22.00;70.40
1956;DHT22;978;48.314;11.562;2023-11-21T10:15:42;22.00;70.40
1956;DHT22;978;48.314;11.562;2023-11-21T10:18:16;22.00;70.40
1956;DHT22;978;48.314;11.562;2023-11-21T10:20:44;22.30;70.60
1956;DHT22;978;48.314;11.562;2023-11-21T10:23:19;24.10;71.60
1956;DHT22;978;48.314;11.562;2023-11-21T10:25:48;22.00;70.50
1956;DHT22;978;48.314;11.562;2023-11-21T10:28:18;22.00;70.50
1956;DHT22;978;48.314;11.562;2023-11-21T10:30:46;22.00;70.50
1956;DHT22;978;48.314;11.562;2023-11-21T10:33:14;22.90;71.00
1956;DHT22;978;48.314;11.562;2023-11-21T10:35:48;22.80;71.10
1956;DHT22;978;48.314;11.562;2023-11-21T10:38:16;22.00;70.60
1956;DHT22;978;48.314;11.562;2023-11-21T10:40:47;22.00;70.60
1956;DHT22;978;48.314;11.562;2023-11-21T10:43:16;22.00;70.60
1956;DHT22;978;48.314;11.562;2023-11-21T10:45:44;22.20;70.80
1956;DHT22;978;48.314;11.562;2023-11-21T10:48:13;22.00;70.60
1956;DHT22;978;48.314;11.562;2023-11-21T10:50:43;22.00;70.70
1956;DHT22;978;48.314;11.562;2023-11-21T10:53:10;23.40;71.50
1956;DHT22;978;48.314;11.562;2023-11-21T10:55:43;22.00;70.70
1956;DHT22;978;48.314;11.562;2023-11-21T10:58:10;22.00;70.80
1956;DHT22;978;48.314;11.562;2023-11-21T11:00:41;23.00;71.30
1956;DHT22;978;48.314;11.562;2023-11-21T11:03:10;22.50;71.10
1956;DHT22;978;48.314;11.562;2023-11-21T11:05:43;22.00;70.80
1956;DHT22;978;48.314;11.562;2023-11-21T11:08:19;22.00;70.80
1956;DHT22;978;48.314;11.562;2023-11-21T11:10:53;22.00;70.80
1956;DHT22;978;48.314;11.562;2023-11-21T11:13:20;22.80;71.30
1956;DHT22;978;48.314;11.562;2023-11-21T11:15:47;22.00;71.40
1956;DHT22;978;48.314;11.562;2023-11-21T11:18:16;25.30;72.70
1956;DHT22;978;48.314;11.562;2023-11-21T11:20:44;22.00;70.80
1956;DHT22;978;48.314;11.562;2023-11-21T11:23:30;22.70;71.20
1956;DHT22;978;48.314;11.562;2023-11-21T11:26:12;23.20;70.50
1956;DHT22;978;48.314;11.562;2023-11-21T11:28:47;22.00;70.10
1956;DHT22;978;48.314;11.562;2023-11-21T11:31:27;22.00;70.40
1956;DHT22;978;48.314;11.562;2023-11-21T11:34:04;22.00;70.50
1956;DHT22;978;48.314;11.562;2023-11-21T11:36:39;22.00;70.50
1956;DHT22;978;48.314;11.562;2023-11-21T11:39:26;22.30;70.70
1956;DHT22;978;48.314;11.562;2023-11-21T11:41:58;22.00;70.40
1956;DHT22;978;48.314;11.562;2023-11-21T11:44:48;23.30;71.10
1956;DHT22;978;48.314;11.562;2023-11-21T11:47:19;22.00;70.40
1956;DHT22;978;48.314;11.562;2023-11-21T11:50:00;22.00;70.40
1956;DHT22;978;48.314;11.562;2023-11-21T11:52:37;22.00;70.30
1956;DHT22;978;48.314;11.562;2023-11-21T11:55:06;22.40;70.60
1956;DHT22;978;48.314;11.562;2023-11-21T11:57:38;22.00;70.30
1956;DHT22;978;48.314;11.562;2023-11-21T12:00:14;22.00;70.30
1956;DHT22;978;48.314;11.562;2023-11-21T12:02:48;21.90;70.20
1956;DHT22;978;48.314;11.562;2023-11-21T12:05:17;22.00;70.30
1956;DHT22;978;48.314;11.562;2023-11-21T12:07:45;22.00;70.20
1956;DHT22;978;48.314;11.562;2023-11-21T12:10:14;21.90;70.20
1956;DHT22;978;48.314;11.562;2023-11-21T12:12:46;22.70;70.60
1956;DHT22;978;48.314;11.562;2023-11-21T12:15:14;22.50;70.50
1956;DHT22;978;48.314;11.562;2023-11-21T12:17:44;22.00;70.20
1956;DHT22;978;48.314;11.562;2023-11-21T12:20:11;22.00;70.20
1956;DHT22;978;48.314;11.562;2023-11-21T12:22:47;22.00;70.20
1956;DHT22;978;48.314;11.562;2023-11-21T12:25:17;22.00;70.20
1956;DHT22;978;48.314;11.562;2023-11-21T12:27:47;22.00;70.10
1956;DHT22;978;48.314;11.562;2023-11-21T12:30:18;22.00;70.10
1956;DHT22;978;48.314;11.562;2023-11-21T12:32:47;22.00;70.10
1956;DHT22;978;48.314;11.562;2023-11-21T12:35:15;22.00;70.10
1956;DHT22;978;48.314;11.562;2023-11-21T12:37:46;21.90;70.10
1956;DHT22;978;48.314;11.562;2023-11-21T12:40:15;22.00;70.20
1956;DHT22;978;48.314;11.562;2023-11-21T12:42:46;22.00;70.10
1956;DHT22;978;48.314;11.562;2023-11-21T12:45:22;21.90;70.10
1956;DHT22;978;48.314;11.562;2023-11-21T12:47:51;22.00;70.10
1956;DHT22;978;48.314;11.562;2023-11-21T12:50:20;22.00;70.20
1956;DHT22;978;48.314;11.562;2023-11-21T12:52:51;22.00;70.10
1956;DHT22;978;48.314;11.562;2023-11-21T12:55:20;23.30;70.80
1956;DHT22;978;48.314;11.562;2023-11-21T12:57:51;22.00;70.10
1956;DHT22;978;48.314;11.562;2023-11-21T13:00:20;22.20;70.20
1956;DHT22;978;48.314;11.562;2023-11-21T13:02:54;22.50;70.40
1956;DHT22;978;48.314;11.562;2023-11-21T13:05:30;22.00;70.20
1956;DHT22;978;48.314;11.562;2023-11-21T13:08:01;22.00;70.20
1956;DHT22;978;48.314;11.562;2023-11-21T13:10:30;21.90;70.20
1956;DHT22;978;48.314;11.562;2023-11-21T13:13:00;21.90;69.70
1956;DHT22;978;48.314;11.562;2023-11-21T13:15:31;22.30;70.50
1956;DHT22;978;48.314;11.562;2023-11-21T13:18:00;23.00;70.90
1956;DHT22;978;48.314;11.562;2023-11-21T13:20:28;24.20;71.60
1956;DHT22;978;48.314;11.562;2023-11-21T13:22:56;22.60;70.70
1956;DHT22;978;48.314;11.562;2023-11-21T13:25:26;22.00;70.40
1956;DHT22;978;48.314;11.562;2023-11-21T13:27:53;22.00;70.50
1956;DHT22;978;48.314;11.562;2023-11-21T13:30:23;22.30;70.70
1956;DHT22;978;48.314;11.562;2023-11-21T13:32:54;22.00;70.50
1956;DHT22;978;48.314;11.562;2023-11-21T13:35:24;22.80;71.00
1956;DHT22;978;48.314;11.562;2023-11-21T13:38:05;22.30;70.80
1956;DHT22;978;48.314;11.562;2023-11-21T13:40:33;23.30;71.30
1956;DHT22;978;48.314;11.562;2023-11-21T13:43:09;22.10;70.80
1956;DHT22;978;48.314;11.562;2023-11-21T13:45:39;22.00;70.60
1956;DHT22;978;48.314;11.562;2023-11-21T13:48:09;21.90;70.70
1956;DHT22;978;48.314;11.562;2023-11-21T13:50:37;24.50;72.10
1956;DHT22;978;48.314;11.562;2023-11-21T13:53:04;23.40;71.50
1956;DHT22;978;48.314;11.562;2023-11-21T13:55:44;22.00;70.80
1956;DHT22;978;48.314;11.562;2023-11-21T14:00:47;22.00;70.30
1956;DHT22;978;48.314;11.562;2023-11-21T14:08:27;21.90;70.30
1956;DHT22;978;48.314;11.562;2023-11-21T14:10:54;22.00;70.90
1956;DHT22;978;48.314;11.562;2023-11-21T14:13:25;21.90;70.30
1956;DHT22;978;48.314;11.562;2023-11-21T14:15:57;22.00;70.80
1956;DHT22;978;48.314;11.562;2023-11-21T14:18:27;22.30;71.10
1956;DHT22;978;48.314;11.562;2023-11-21T14:20:59;23.20;71.60
1956;DHT22;978;48.314;11.562;2023-11-21T14:23:26;21.90;70.80
1956;DHT22;978;48.314;11.562;2023-11-21T14:25:54;22.00;70.90
1956;DHT22;978;48.314;11.562;2023-11-21T14:28:21;22.60;71.30
1956;DHT22;978;48.314;11.562;2023-11-21T14:30:48;22.80;71.40
1956;DHT22;978;48.314;11.562;2023-11-21T14:33:17;21.90;70.90
1956;DHT22;978;48.314;11.562;2023-11-21T14:35:44;22.00;71.00
1956;DHT22;978;48.314;11.562;2023-11-21T14:38:13;22.00;71.00
1956;DHT22;978;48.314;11.562;2023-11-21T14:40:40;21.90;71.00
1956;DHT22;978;48.314;11.562;2023-11-21T14:43:08;22.00;71.10
1956;DHT22;978;48.314;11.562;2023-11-21T14:45:36;22.00;71.10
1956;DHT22;978;48.314;11.562;2023-11-21T14:48:03;22.00;71.10
1956;DHT22;978;48.314;11.562;2023-11-21T14:50:36;22.00;71.10
1956;DHT22;978;48.314;11.562;2023-11-21T14:53:17;23.10;71.70
1956;DHT22;978;48.314;11.562;2023-11-21T14:56:03;22.20;71.20
1956;DHT22;978;48.314;11.562;2023-11-21T14:58:31;21.90;71.10
1956;DHT22;978;48.314;11.562;2023-11-21T15:00:59;22.90;71.60
1956;DHT22;978;48.314;11.562;2023-11-21T15:03:28;22.00;71.20
1956;DHT22;978;48.314;11.562;2023-11-21T15:06:11;22.00;71.20
1956;DHT22;978;48.314;11.562;2023-11-21T15:08:53;22.00;71.20
1956;DHT22;978;48.314;11.562;2023-11-21T15:11:44;22.10;71.30
1956;DHT22;978;48.314;11.562;2023-11-21T15:14:11;22.00;71.30
1956;DHT22;978;48.314;11.562;2023-11-21T15:16:46;22.00;71.30
1956;DHT22;978;48.314;11.562;2023-11-21T15:19:18;22.00;71.30
1956;DHT22;978;48.314;11.562;2023-11-21T15:21:52;23.40;72.10
1956;DHT22;978;48.314;11.562;2023-11-21T15:24:20;22.00;71.30
1956;DHT22;978;48.314;11.562;2023-11-21T15:26:47;22.00;71.40
1956;DHT22;978;48.314;11.562;2023-11-21T15:29:15;21.90;71.30
1956;DHT22;978;48.314;11.562;2023-11-21T15:31:44;21.90;71.30
1956;DHT22;978;48.314;11.562;2023-11-21T15:34:15;22.00;71.40
1956;DHT22;978;48.314;11.562;2023-11-21T15:36:43;22.70;71.80
1956;DHT22;978;48.314;11.562;2023-11-21T15:39:13;21.90;71.40
1956;DHT22;978;48.314;11.562;2023-11-21T15:41:42;22.00;71.40
1956;DHT22;978;48.314;11.562;2023-11-21T15:44:09;22.10;71.60
1956;DHT22;978;48.314;11.562;2023-11-21T15:46:37;22.10;71.60
1956;DHT22;978;48.314;11.562;2023-11-21T15:49:07;21.90;71.50
1956;DHT22;978;48.314;11.562;2023-11-21T15:51:39;22.00;71.60
1956;DHT22;978;48.314;11.562;2023-11-21T15:54:08;22.00;71.80
1956;DHT22;978;48.314;11.562;2023-11-21T15:56:38;22.00;71.90
1956;DHT22;978;48.314;11.562;2023-11-21T15:59:05;23.00;72.30
1956;DHT22;978;48.314;11.562;2023-11-21T16:01:35;22.90;72.20
1956;DHT22;978;48.314;11.562;2023-11-21T16:04:09;22.00;71.70
1956;DHT22;978;48.314;11.562;2023-11-21T16:06:36;22.00;71.70
1956;DHT22;978;48.314;11.562;2023-11-21T16:09:05;22.30;71.90
1956;DHT22;978;48.314;11.562;2023-11-21T16:11:44;23.00;72.30
1956;DHT22;978;48.314;11.562;2023-11-21T16:14:11;22.50;72.00
1956;DHT22;978;48.314;11.562;2023-11-21T16:16:43;22.00;71.80
1956;DHT22;978;48.314;11.562;2023-11-21T16:19:10;23.00;72.30
1956;DHT22;978;48.314;11.562;2023-11-21T16:24:06;22.00;71.30
1956;DHT22;978;48.314;11.562;2023-11-21T16:26:34;22.00;71.80
1956;DHT22;978;48.314;11.562;2023-11-21T16:29:03;22.10;71.90